Time;durP1;ratioP1;P1;durP2;ratioP2;P2;SDS_P1;SDS_P2;PMS_P1;PMS_P2;Temp;Humidity;BMP_temperature;BMP_pressure;BME280_temperature;BME280_humidity;BME280_pressure;Samples;Min_cycle;Max_cycle;Signal;HPM_P1;HPM_P2
2021/05/26 00:00:08;;;;;;;6.72;3.70;;;;;;;11.35;71.58;100541.37;1665063;84;27508;-73
2021/05/26 00:02:36;;;;;;;7.15;3.12;;;;;;;11.34;71.40;100535.67;1656831;84;25834;-74
2021/05/26 00:05:05;;;;;;;5.90;3.10;;;;;;;11.37;71.36;100549.21;1655765;86;25284;-73
2021/05/26 00:07:32;;;;;;;8.80;3.12;;;;;;;11.37;71.25;100547.37;1688630;84;26787;-73
2021/05/26 00:09:59;;;;;;;6.70;2.87;;;;;;;11.38;71.11;100549.52;1688058;84;25652;-73
2021/05/26 00:12:26;;;;;;;5.97;3.65;;;;;;;11.37;70.88;100558.09;1641942;84;28117;-74
2021/05/26 00:14:53;;;;;;;5.58;2.95;;;;;;;11.35;70.74;100552.09;1652008;84;26392;-73
2021/05/26 00:17:21;;;;;;;5.25;3.60;;;;;;;11.33;70.60;100560.01;1689631;84;25560;-73
2021/05/26 00:19:48;;;;;;;7.70;2.77;;;;;;;11.29;70.50;100562.76;1648150;85;25716;-74
2021/05/26 00:22:15;;;;;;;7.53;3.17;;;;;;;11.26;70.29;100559.11;1624289;86;25665;-73
2021/05/26 00:24:42;;;;;;;4.37;2.90;;;;;;;11.24;70.22;100563.84;1654535;84;27513;-73
2021/05/26 00:27:09;;;;;;;4.92;2.80;;;;;;;11.22;70.20;100565.87;1642616;85;25774;-74
2021/05/26 00:29:36;;;;;;;4.60;2.55;;;;;;;11.20;69.88;100567.42;1661942;84;25691;-74
2021/05/26 00:32:03;;;;;;;4.83;2.77;;;;;;;11.19;70.03;100572.95;1646424;84;25771;-73
2021/05/26 00:34:30;;;;;;;5.55;2.40;;;;;;;11.17;69.92;100569.13;1621186;86;25856;-74
2021/05/26 00:36:57;;;;;;;5.03;2.83;;;;;;;11.12;69.78;100576.09;1687664;83;27957;-74
2021/05/26 00:39:24;;;;;;;5.97;2.67;;;;;;;11.12;69.76;100588.16;1687988;84;26223;-74
2021/05/26 00:41:51;;;;;;;7.00;2.87;;;;;;;11.09;69.79;100592.05;1600971;86;25727;-74
2021/05/26 00:44:18;;;;;;;7.97;2.65;;;;;;;11.06;69.77;100583.53;1607012;86;26288;-74
2021/05/26 00:46:47;;;;;;;4.08;2.67;;;;;;;11.02;69.59;100583.09;1652958;83;25728;-73
2021/05/26 00:49:14;;;;;;;3.83;2.27;;;;;;;11.00;69.68;100596.36;1680348;83;27421;-74
2021/05/26 00:51:42;;;;;;;4.30;2.40;;;;;;;10.98;69.54;100590.36;1600994;85;26388;-73
2021/05/26 00:54:09;;;;;;;3.42;2.35;;;;;;;10.93;69.47;100591.45;1639611;84;25803;-73
2021/05/26 00:56:37;;;;;;;5.45;2.55;;;;;;;10.88;69.37;100591.48;1661487;84;25757;-74
2021/05/26 00:59:06;;;;;;;13.55;3.08;;;;;;;10.81;69.16;100587.09;1689588;83;26150;-74
2021/05/26 01:01:35;;;;;;;4.58;2.75;;;;;;;10.78;69.21;100591.47;1639780;84;27439;-73
2021/05/26 01:04:05;;;;;;;5.63;3.07;;;;;;;10.75;69.36;100596.72;1628449;86;25900;-73
2021/05/26 01:06:33;;;;;;;4.58;2.50;;;;;;;10.75;69.27;100586.00;1687536;84;25776;-73
2021/05/26 01:09:00;;;;;;;5.85;3.20;;;;;;;10.72;69.22;100592.23;1670423;84;25702;-74
2021/05/26 01:11:27;;;;;;;3.85;2.20;;;;;;;10.68;69.23;100605.18;1637451;85;25681;-73
2021/05/26 01:13:55;;;;;;;2.58;1.72;;;;;;;10.65;69.00;100606.04;1647567;84;27559;-74
2021/05/26 01:16:23;;;;;;;2.60;1.80;;;;;;;10.58;68.96;100607.33;1662804;84;26402;-73
2021/05/26 01:18:50;;;;;;;5.33;2.10;;;;;;;10.54;69.14;100614.58;1666901;84;25846;-73
2021/05/26 01:21:22;;;;;;;3.25;1.70;;;;;;;10.52;69.19;100617.95;1659940;84;25919;-73
2021/05/26 01:23:50;;;;;;;6.90;2.15;;;;;;;10.46;68.97;100614.15;1631302;86;25900;-73
2021/05/26 01:26:22;;;;;;;6.25;2.20;;;;;;;10.43;69.04;100623.07;1688834;83;27617;-74
2021/05/26 01:28:49;;;;;;;3.70;1.95;;;;;;;10.40;69.15;100621.59;1687374;84;25720;-74
2021/05/26 01:35:24;;;;;;;3.67;1.70;;;;;;;10.37;69.21;100617.13;1649819;86;26755;-73
2021/05/26 01:37:51;;;;;;;4.70;2.20;;;;;;;10.29;69.25;100630.58;1668429;84;25696;-73
2021/05/26 01:40:19;;;;;;;4.25;1.90;;;;;;;10.30;69.38;100628.23;1686533;84;27401;-74
2021/05/26 01:42:47;;;;;;;3.87;1.98;;;;;;;10.24;69.38;100621.78;1625515;86;25758;-73
2021/05/26 01:45:18;;;;;;;2.87;1.50;;;;;;;10.20;69.50;100625.81;1640270;84;26468;-74
2021/05/26 01:47:51;;;;;;;4.22;2.15;;;;;;;10.21;69.59;100632.01;1697517;83;26331;-74
2021/05/26 01:50:22;;;;;;;2.70;1.90;;;;;;;10.19;69.55;100637.55;1652573;86;25882;-73
2021/05/26 01:52:56;;;;;;;3.05;1.80;;;;;;;10.14;69.61;100635.92;1631853;86;27372;-73
2021/05/26 01:55:23;;;;;;;2.77;1.82;;;;;;;10.12;69.73;100637.11;1690322;84;25966;-74
2021/05/26 01:57:50;;;;;;;3.58;2.20;;;;;;;10.11;69.75;100641.66;1687392;84;25759;-73
2021/05/26 02:00:20;;;;;;;3.25;2.17;;;;;;;10.08;69.71;100646.83;1689221;84;26075;-74
2021/05/26 02:02:48;;;;;;;3.22;2.15;;;;;;;10.04;69.77;100651.39;1641476;84;25850;-73
2021/05/26 02:05:16;;;;;;;5.40;2.20;;;;;;;9.99;69.83;100651.93;1624763;86;27833;-73
2021/05/26 02:07:44;;;;;;;3.08;2.02;;;;;;;9.96;69.83;100655.48;1646719;86;25673;-73
2021/05/26 02:10:16;;;;;;;3.42;2.00;;;;;;;9.92;70.00;100652.32;1652078;85;25284;-73
2021/05/26 02:12:45;;;;;;;3.17;1.82;;;;;;;9.90;70.00;100653.01;1600591;86;25809;-73
2021/05/26 02:15:15;;;;;;;3.17;1.98;;;;;;;9.85;70.12;100660.77;1630821;84;26188;-73
2021/05/26 02:17:43;;;;;;;3.98;2.10;;;;;;;9.82;70.13;100660.28;1688954;84;27409;-73
2021/05/26 02:20:12;;;;;;;4.53;1.80;;;;;;;9.82;70.21;100670.98;1652776;86;25646;-74
2021/05/26 02:22:40;;;;;;;3.25;2.08;;;;;;;9.76;70.24;100674.37;1633182;86;25734;-73
2021/05/26 02:25:08;;;;;;;4.25;2.00;;;;;;;9.68;70.33;100671.27;1664030;84;26344;-73
2021/05/26 02:27:36;;;;;;;4.60;2.05;;;;;;;9.66;70.46;100672.46;1700400;83;25645;-74
2021/05/26 02:30:06;;;;;;;4.37;2.70;;;;;;;9.61;70.60;100675.66;1697238;83;27522;-73
2021/05/26 02:32:34;;;;;;;2.92;2.12;;;;;;;9.57;70.61;100674.36;1633197;86;25618;-73
2021/05/26 02:35:01;;;;;;;5.65;2.50;;;;;;;9.53;70.70;100685.59;1668363;84;25822;-73
2021/05/26 02:37:28;;;;;;;7.60;2.20;;;;;;;9.48;70.87;100675.92;1639694;85;26578;-73
2021/05/26 02:39:55;;;;;;;5.28;2.30;;;;;;;9.44;70.88;100678.63;1641681;84;26646;-73
2021/05/26 02:42:22;;;;;;;2.45;2.10;;;;;;;9.39;71.01;100670.33;1656363;86;28152;-73
2021/05/26 02:44:49;;;;;;;2.98;1.80;;;;;;;9.37;71.13;100673.16;1607855;86;25692;-74
2021/05/26 02:47:16;;;;;;;3.98;2.50;;;;;;;9.34;71.12;100675.67;1664909;84;25768;-74
2021/05/26 02:49:43;;;;;;;4.22;2.50;;;;;;;9.32;71.26;100674.21;1673141;84;26062;-73
2021/05/26 02:52:11;;;;;;;4.40;2.30;;;;;;;9.29;71.24;100678.55;1665591;84;25705;-74
2021/05/26 02:54:39;;;;;;;4.00;2.50;;;;;;;9.26;71.43;100676.22;1605369;86;27481;-73
2021/05/26 02:57:06;;;;;;;4.70;2.60;;;;;;;9.25;71.47;100679.42;1668216;84;25685;-74
2021/05/26 02:59:52;;;;;;;3.98;2.40;;;;;;;9.22;71.67;100682.44;1674511;84;26494;-73
2021/05/26 03:02:20;;;;;;;4.15;2.05;;;;;;;9.19;71.70;100687.31;1689546;84;27122;-74
2021/05/26 03:05:10;;;;;;;5.17;2.17;;;;;;;9.15;71.90;100693.49;1668538;82;26568;-73
2021/05/26 03:07:38;;;;;;;4.60;2.27;;;;;;;9.14;71.91;100693.18;1666228;84;27985;-74
2021/05/26 03:10:06;;;;;;;3.58;2.35;;;;;;;9.18;72.25;100699.00;1677577;84;25645;-74
2021/05/26 03:12:35;;;;;;;3.85;2.60;;;;;;;9.19;72.03;100696.66;1687151;82;25806;-73
2021/05/26 03:15:10;;;;;;;3.95;2.33;;;;;;;9.19;72.05;100694.84;1638299;86;26672;-73
2021/05/26 03:17:37;;;;;;;5.28;2.25;;;;;;;9.20;72.16;100696.98;1620518;86;25695;-73
2021/05/26 03:20:08;;;;;;;3.67;2.10;;;;;;;9.22;72.18;100693.63;1653586;84;27359;-73
2021/05/26 03:22:37;;;;;;;6.03;2.45;;;;;;;9.23;72.16;100701.48;1656568;85;25959;-73
2021/05/26 03:25:06;;;;;;;6.33;2.22;;;;;;;9.27;72.20;100703.30;1668415;84;26393;-73
2021/05/26 03:27:35;;;;;;;4.40;2.00;;;;;;;9.30;72.14;100707.78;1629914;86;26607;-73
2021/05/26 03:30:06;;;;;;;2.40;1.70;;;;;;;9.39;72.19;100702.41;1633243;86;25767;-73
2021/05/26 03:32:33;;;;;;;4.45;2.30;;;;;;;9.44;71.98;100697.34;1681588;84;27421;-73
2021/05/26 03:35:01;;;;;;;5.17;1.90;;;;;;;9.48;71.93;100707.51;1667940;84;25724;-74
2021/05/26 03:37:28;;;;;;;4.08;2.62;;;;;;;9.56;71.93;100691.41;1642310;84;25825;-73
2021/05/26 03:39:56;;;;;;;2.72;2.05;;;;;;;9.61;71.79;100697.06;1637097;84;26249;-74
2021/05/26 03:42:24;;;;;;;4.28;2.12;;;;;;;9.65;71.73;100699.70;1683228;84;25724;-73
2021/05/26 03:44:51;;;;;;;3.30;2.00;;;;;;;9.72;71.67;100695.81;1690014;82;27384;-74
2021/05/26 03:47:19;;;;;;;2.92;1.87;;;;;;;9.73;71.50;100699.63;1609918;84;25876;-74
2021/05/26 03:49:46;;;;;;;6.70;2.25;;;;;;;9.76;71.54;100695.28;1628379;86;25976;-73
2021/05/26 03:52:13;;;;;;;3.80;2.08;;;;;;;9.83;71.55;100698.91;1651150;84;25805;-74
2021/05/26 03:54:41;;;;;;;2.30;1.92;;;;;;;9.84;71.36;100703.23;1633322;85;25706;-74
2021/05/26 03:57:09;;;;;;;4.20;1.82;;;;;;;9.86;71.32;100699.03;1610096;86;27480;-73
2021/05/26 03:59:38;;;;;;;3.50;1.72;;;;;;;9.93;71.49;100695.97;1670952;84;25876;-74
2021/05/26 04:02:06;;;;;;;2.90;1.67;;;;;;;10.01;71.34;100698.08;1688261;84;25647;-73
2021/05/26 04:04:37;;;;;;;3.15;2.12;;;;;;;10.05;71.19;100698.03;1627579;86;25867;-74
2021/05/26 04:07:05;;;;;;;2.65;2.30;;;;;;;10.10;71.00;100702.84;1587743;86;26027;-73
2021/05/26 04:09:33;;;;;;;3.80;2.25;;;;;;;10.16;71.00;100708.84;1676539;84;27308;-74
2021/05/26 04:12:00;;;;;;;4.72;1.90;;;;;;;10.19;71.05;100704.48;1697024;83;25962;-74
2021/05/26 04:14:41;;;;;;;2.58;1.67;;;;;;;10.17;70.76;100701.15;1675179;83;26433;-73
2021/05/26 04:17:26;;;;;;;2.33;1.70;;;;;;;10.19;70.79;100689.75;1629051;86;25904;-74
2021/05/26 04:20:03;;;;;;;3.45;2.10;;;;;;;10.28;70.87;100708.75;1662151;84;25276;-74
2021/05/26 04:22:28;;;;;;;8.23;2.25;;;;;;;10.34;70.67;100704.50;1651093;86;27540;-73
2021/05/26 04:24:57;;;;;;;3.60;1.87;;;;;;;10.39;70.68;100712.83;1646543;84;25685;-74
2021/05/26 04:27:25;;;;;;;3.02;1.98;;;;;;;10.44;70.62;100710.41;1628399;86;25664;-73
2021/05/26 04:29:53;;;;;;;3.60;2.10;;;;;;;10.49;70.46;100722.75;1643652;82;26355;-73
2021/05/26 04:32:20;;;;;;;3.00;1.67;;;;;;;10.52;70.54;100707.14;1659019;84;26460;-74
2021/05/26 04:34:47;;;;;;;2.33;1.80;;;;;;;10.54;70.19;100706.45;1627948;86;27497;-73
2021/05/26 04:37:16;;;;;;;3.20;1.72;;;;;;;10.60;70.18;100706.23;1663236;85;25691;-73
2021/05/26 04:39:45;;;;;;;2.02;1.42;;;;;;;10.62;70.02;100711.73;1666263;84;25969;-74
2021/05/26 04:42:12;;;;;;;3.45;1.70;;;;;;;10.68;69.91;100717.70;1682217;84;26486;-73
2021/05/26 04:44:39;;;;;;;2.87;1.80;;;;;;;10.73;69.99;100720.62;1648847;85;25608;-73
2021/05/26 04:47:06;;;;;;;3.62;1.90;;;;;;;10.78;69.83;100721.42;1664516;84;28148;-73
2021/05/26 04:49:33;;;;;;;3.90;2.00;;;;;;;10.85;69.62;100714.31;1650529;85;25885;-73
2021/05/26 04:52:00;;;;;;;8.00;3.17;;;;;;;10.92;69.76;100714.41;1662469;84;25608;-73
2021/05/26 04:54:27;;;;;;;4.90;2.20;;;;;;;11.00;69.82;100715.13;1656944;84;26353;-73
2021/05/26 04:56:54;;;;;;;2.58;1.70;;;;;;;11.11;69.72;100709.30;1663970;84;25695;-74
2021/05/26 04:59:21;;;;;;;3.85;1.65;;;;;;;11.17;69.23;100713.07;1674723;84;27316;-73
2021/05/26 05:01:48;;;;;;;2.08;1.47;;;;;;;11.24;68.70;100711.31;1663953;84;26073;-73
2021/05/26 05:04:15;;;;;;;5.92;1.90;;;;;;;11.29;68.81;100723.12;1628760;84;26424;-73
2021/05/26 05:06:42;;;;;;;1.98;1.50;;;;;;;11.34;68.33;100720.72;1626501;86;25863;-73
2021/05/26 05:09:10;;;;;;;2.33;1.47;;;;;;;11.39;67.68;100722.33;1654448;84;26475;-73
2021/05/26 05:11:39;;;;;;;1.85;1.47;;;;;;;11.43;67.05;100725.45;1672152;83;27472;-73
2021/05/26 05:14:06;;;;;;;3.60;1.60;;;;;;;11.44;67.30;100718.55;1624433;85;25749;-73
2021/05/26 05:16:33;;;;;;;3.25;1.25;;;;;;;11.47;67.33;100713.33;1630739;86;25727;-73
2021/05/26 05:19:00;;;;;;;1.85;1.30;;;;;;;11.53;67.29;100720.11;1648463;84;26074;-73
2021/05/26 05:21:27;;;;;;;2.70;1.30;;;;;;;11.61;67.24;100712.46;1657478;84;26530;-73
2021/05/26 05:23:54;;;;;;;2.33;1.47;;;;;;;11.69;67.22;100719.08;1633601;84;27369;-74
2021/05/26 05:26:21;;;;;;;2.70;1.37;;;;;;;11.75;66.86;100723.67;1636285;84;26451;-73
2021/05/26 05:28:48;;;;;;;1.75;1.00;;;;;;;11.83;67.02;100722.70;1668562;84;26457;-73
2021/05/26 05:31:15;;;;;;;1.62;1.37;;;;;;;11.93;66.57;100721.89;1698446;83;25875;-74
2021/05/26 05:33:42;;;;;;;3.90;1.60;;;;;;;11.99;66.32;100719.77;1654718;84;25758;-74
2021/05/26 05:36:09;;;;;;;3.30;1.52;;;;;;;12.06;66.06;100717.98;1654807;83;27476;-74
2021/05/26 05:38:37;;;;;;;2.45;1.20;;;;;;;12.17;66.25;100724.15;1660953;83;25802;-73
2021/05/26 05:41:04;;;;;;;2.08;1.40;;;;;;;12.27;66.08;100721.98;1696833;83;25292;-73
2021/05/26 05:43:31;;;;;;;5.40;1.80;;;;;;;12.36;65.88;100720.78;1685319;84;25921;-73
2021/05/26 05:46:00;;;;;;;2.65;1.60;;;;;;;12.44;65.35;100726.55;1654860;84;25705;-73
2021/05/26 05:48:27;;;;;;;4.45;1.90;;;;;;;12.57;65.79;100723.95;1599687;86;28070;-74
2021/05/26 05:50:54;;;;;;;3.80;1.37;;;;;;;12.61;64.31;100726.56;1654800;85;25703;-73
2021/05/26 05:53:21;;;;;;;2.45;1.20;;;;;;;12.58;64.51;100721.56;1663207;85;26470;-73
2021/05/26 05:55:49;;;;;;;4.40;1.05;;;;;;;12.60;64.08;100716.83;1609727;86;26452;-74
2021/05/26 05:58:24;;;;;;;2.08;1.10;;;;;;;12.65;64.59;100717.91;1634527;86;25715;-72
2021/05/26 06:00:52;;;;;;;1.98;1.57;;;;;;;12.76;63.50;100721.91;1687599;84;27635;-73
2021/05/26 06:03:19;;;;;;;2.75;1.00;;;;;;;12.88;63.92;100719.80;1608902;86;25645;-73
2021/05/26 06:05:46;;;;;;;2.45;1.20;;;;;;;13.00;64.15;100720.08;1627113;84;25699;-74
2021/05/26 06:08:13;;;;;;;2.37;0.98;;;;;;;13.05;63.83;100720.33;1648028;84;26233;-74
2021/05/26 06:10:40;;;;;;;3.55;0.85;;;;;;;13.02;62.21;100706.72;1661496;84;25641;-74
2021/05/26 06:13:08;;;;;;;1.50;0.80;;;;;;;12.96;62.89;100729.55;1666518;84;27435;-73
2021/05/26 06:15:36;;;;;;;1.98;1.15;;;;;;;12.90;62.64;100721.77;1649329;85;25832;-73
2021/05/26 06:18:04;;;;;;;1.55;1.30;;;;;;;12.93;63.14;100725.93;1651634;84;26001;-73
2021/05/26 06:20:31;;;;;;;3.25;0.90;;;;;;;12.96;63.12;100723.66;1676085;84;25937;-74
2021/05/26 06:22:58;;;;;;;2.62;1.37;;;;;;;13.01;63.58;100715.84;1665110;84;25782;-73
2021/05/26 06:25:26;;;;;;;4.47;1.55;;;;;;;13.06;63.27;100718.80;1649128;84;27329;-74
2021/05/26 06:27:54;;;;;;;3.22;1.15;;;;;;;13.07;63.06;100724.48;1651728;84;26007;-73
2021/05/26 06:30:21;;;;;;;1.50;1.12;;;;;;;13.10;63.13;100718.72;1674112;84;25748;-74
2021/05/26 06:32:48;;;;;;;2.65;1.00;;;;;;;13.17;62.58;100722.78;1691634;84;25903;-73
2021/05/26 06:35:15;;;;;;;1.65;0.90;;;;;;;13.27;63.01;100722.39;1637875;85;25752;-74
2021/05/26 06:37:42;;;;;;;4.47;1.00;;;;;;;13.35;62.88;100720.86;1649097;85;27576;-74
2021/05/26 06:40:10;;;;;;;3.05;1.20;;;;;;;13.49;62.37;100722.08;1657150;84;25840;-73
2021/05/26 06:42:37;;;;;;;1.87;0.95;;;;;;;13.64;63.22;100723.25;1689758;84;25743;-74
2021/05/26 06:45:06;;;;;;;1.67;0.90;;;;;;;13.83;62.81;100729.19;1615335;86;25776;-73
2021/05/26 06:47:33;;;;;;;3.02;0.90;;;;;;;13.99;62.16;100719.36;1625768;84;25781;-74
2021/05/26 06:50:01;;;;;;;1.00;0.80;;;;;;;14.14;61.34;100726.72;1685873;83;27387;-74
2021/05/26 06:52:30;;;;;;;5.15;1.30;;;;;;;14.01;60.44;100733.98;1694139;83;25518;-74
2021/05/26 06:54:57;;;;;;;2.27;1.22;;;;;;;13.88;59.31;100729.38;1597118;84;26475;-74
2021/05/26 06:57:24;;;;;;;3.62;1.40;;;;;;;13.90;60.12;100724.11;1668028;84;25869;-73
2021/05/26 06:59:51;;;;;;;1.65;1.00;;;;;;;13.92;60.38;100727.97;1650275;84;25656;-74
2021/05/26 07:02:18;;;;;;;1.62;0.80;;;;;;;14.05;60.57;100725.26;1660352;85;28190;-73
2021/05/26 07:04:45;;;;;;;3.55;1.22;;;;;;;14.20;60.70;100726.43;1624098;84;25754;-73
2021/05/26 07:07:12;;;;;;;5.20;2.02;;;;;;;14.29;60.96;100731.94;1653840;84;25855;-74
2021/05/26 07:09:39;;;;;;;3.10;1.15;;;;;;;14.37;60.46;100742.53;1664795;84;25954;-74
2021/05/26 07:12:07;;;;;;;3.33;1.10;;;;;;;14.34;60.15;100732.98;1689842;84;25708;-74
2021/05/26 07:14:34;;;;;;;1.70;0.93;;;;;;;14.36;59.37;100744.38;1601232;86;27478;-74
2021/05/26 07:17:01;;;;;;;1.92;0.88;;;;;;;14.30;58.93;100749.27;1624637;86;25683;-74
2021/05/26 07:19:28;;;;;;;5.20;1.07;;;;;;;14.23;58.57;100755.64;1688384;84;25734;-74
2021/05/26 07:21:55;;;;;;;1.57;0.82;;;;;;;14.24;59.24;100745.98;1662392;84;25935;-74
2021/05/26 07:24:22;;;;;;;1.75;1.05;;;;;;;14.44;59.23;100750.06;1643041;84;25833;-73
2021/05/26 07:26:49;;;;;;;2.10;0.90;;;;;;;14.52;59.16;100738.55;1624538;86;27612;-73
2021/05/26 07:29:16;;;;;;;2.33;1.15;;;;;;;14.58;59.15;100736.91;1630998;86;25811;-74
2021/05/26 07:31:43;;;;;;;1.57;1.00;;;;;;;14.58;59.28;100738.26;1692872;84;25728;-74
2021/05/26 07:34:10;;;;;;;2.77;0.95;;;;;;;14.56;59.02;100743.03;1603062;86;26408;-74
2021/05/26 07:36:37;;;;;;;1.15;0.82;;;;;;;14.57;58.50;100739.28;1667040;84;25665;-74
2021/05/26 07:39:05;;;;;;;2.30;1.00;;;;;;;14.69;59.75;100738.43;1689014;84;28005;-74
2021/05/26 07:41:32;;;;;;;1.45;0.93;;;;;;;14.83;60.07;100733.85;1695896;83;25692;-73
2021/05/26 07:43:59;;;;;;;1.00;0.90;;;;;;;14.86;58.30;100732.61;1653969;85;25658;-74
2021/05/26 07:46:26;;;;;;;3.37;0.90;;;;;;;14.76;58.20;100741.12;1602897;86;25725;-76
2021/05/26 07:48:53;;;;;;;1.87;1.00;;;;;;;14.64;57.36;100745.50;1691551;84;25817;-74
2021/05/26 07:51:29;;;;;;;3.72;0.80;;;;;;;14.55;57.59;100745.41;1654795;86;27386;-73
2021/05/26 07:53:57;;;;;;;2.55;0.65;;;;;;;14.49;58.19;100742.20;1591823;86;25724;-74
2021/05/26 07:56:24;;;;;;;2.08;0.93;;;;;;;14.50;58.61;100745.19;1609016;86;25766;-74
2021/05/26 07:58:51;;;;;;;4.33;1.20;;;;;;;14.55;58.61;100744.05;1669984;84;25758;-74
2021/05/26 08:01:18;;;;;;;3.12;0.95;;;;;;;14.59;58.17;100739.90;1628325;86;25704;-74
2021/05/26 08:03:45;;;;;;;1.70;1.07;;;;;;;14.61;57.75;100745.39;1640532;84;27394;-74
2021/05/26 08:06:14;;;;;;;3.30;0.90;;;;;;;14.64;57.50;100737.41;1629802;86;25748;-74
2021/05/26 08:08:41;;;;;;;3.33;0.90;;;;;;;14.64;57.68;100739.59;1693380;83;25734;-74
2021/05/26 08:11:08;;;;;;;2.95;1.32;;;;;;;14.65;57.78;100737.70;1678536;84;25866;-74
2021/05/26 08:13:35;;;;;;;2.08;1.00;;;;;;;14.59;57.16;100737.20;1659590;84;25668;-74
2021/05/26 08:16:02;;;;;;;1.80;0.80;;;;;;;14.52;57.21;100737.75;1652649;84;27959;-74
2021/05/26 08:18:29;;;;;;;4.70;1.50;;;;;;;14.51;56.88;100737.42;1689659;84;25664;-74
2021/05/26 08:20:56;;;;;;;2.08;1.15;;;;;;;14.52;57.81;100745.84;1666636;84;25619;-74
2021/05/26 08:23:23;;;;;;;2.83;1.25;;;;;;;14.56;57.52;100743.03;1640116;84;25754;-74
2021/05/26 08:25:50;;;;;;;1.42;1.20;;;;;;;14.57;57.45;100748.72;1649674;84;25784;-74
2021/05/26 08:28:16;;;;;;;3.98;1.35;;;;;;;14.59;57.44;100747.48;1651313;84;27565;-74
2021/05/26 08:30:45;;;;;;;2.05;1.00;;;;;;;14.64;57.93;100746.85;1670151;84;25774;-74
2021/05/26 08:33:13;;;;;;;4.50;1.25;;;;;;;14.69;56.78;100745.17;1629759;84;25783;-74
2021/05/26 08:35:39;;;;;;;4.87;1.20;;;;;;;14.75;57.08;100745.38;1631278;86;25884;-74
2021/05/26 08:38:06;;;;;;;2.45;1.25;;;;;;;14.80;56.58;100740.20;1671612;84;25725;-73
2021/05/26 08:40:33;;;;;;;6.03;1.00;;;;;;;14.92;57.57;100725.85;1672864;84;28399;-75
2021/05/26 08:43:02;;;;;;;1.05;0.75;;;;;;;15.11;57.10;100730.35;1658380;84;25815;-74
2021/05/26 08:45:30;;;;;;;2.50;0.72;;;;;;;15.22;56.38;100727.51;1665209;83;25724;-74
2021/05/26 08:48:00;;;;;;;1.85;0.68;;;;;;;15.30;56.93;100729.45;1679679;83;25911;-75
2021/05/26 08:50:26;;;;;;;2.37;1.10;;;;;;;15.39;56.82;100728.68;1701007;83;26410;-74
2021/05/26 08:52:53;;;;;;;2.83;1.27;;;;;;;15.43;56.09;100721.84;1685593;83;27407;-74
2021/05/26 08:55:20;;;;;;;2.35;1.05;;;;;;;15.44;55.83;100730.22;1695618;83;26433;-74
2021/05/26 08:57:47;;;;;;;4.65;1.40;;;;;;;15.40;55.68;100720.36;1608162;86;25798;-73
2021/05/26 09:00:14;;;;;;;3.52;1.20;;;;;;;15.48;55.39;100724.73;1651797;86;26450;-74
2021/05/26 09:02:41;;;;;;;3.52;1.10;;;;;;;15.55;55.40;100724.16;1645942;84;25722;-75
2021/05/26 09:05:29;;;;;;;3.55;0.90;;;;;;;15.74;56.43;100724.56;1666028;84;27557;-74
2021/05/26 09:07:56;;;;;;;2.45;1.10;;;;;;;15.87;56.37;100729.05;1674310;84;26364;-74
2021/05/26 09:10:23;;;;;;;3.02;0.95;;;;;;;15.91;55.28;100724.34;1685035;84;25794;-73
2021/05/26 09:12:53;;;;;;;3.70;0.90;;;;;;;15.90;53.91;100713.77;1651260;84;25748;-74
2021/05/26 09:15:21;;;;;;;1.32;0.85;;;;;;;15.87;53.78;100708.78;1653119;84;25691;-74
2021/05/26 09:17:52;;;;;;;2.60;1.00;;;;;;;15.89;53.96;100705.34;1673163;84;28009;-74
2021/05/26 09:20:27;;;;;;;5.37;0.80;;;;;;;15.91;53.78;100704.08;1646661;86;25867;-74
2021/05/26 09:23:10;;;;;;;1.55;0.90;;;;;;;15.94;53.67;100706.36;1606848;86;26496;-74
2021/05/26 09:25:48;;;;;;;1.35;0.85;;;;;;;15.95;53.90;100709.34;1669003;84;26294;-74
2021/05/26 09:28:24;;;;;;;3.62;0.98;;;;;;;16.00;54.06;100704.13;1626190;86;25919;-74
2021/05/26 09:30:58;;;;;;;1.60;0.78;;;;;;;16.09;53.39;100708.22;1691196;84;27540;-74
2021/05/26 09:33:35;;;;;;;2.98;1.02;;;;;;;16.09;53.46;100710.92;1619970;85;25843;-74
2021/05/26 09:36:23;;;;;;;2.98;0.90;;;;;;;16.11;54.20;100708.83;1678875;84;26531;-74
2021/05/26 09:38:59;;;;;;;3.67;1.35;;;;;;;16.19;54.40;100707.20;1680118;84;25767;-74
2021/05/26 09:41:35;;;;;;;3.55;0.98;;;;;;;16.27;53.39;100707.98;1627298;86;25722;-74
2021/05/26 09:44:11;;;;;;;3.05;1.00;;;;;;;16.31;53.33;100705.13;1683303;84;27555;-74
2021/05/26 09:46:46;;;;;;;4.35;0.88;;;;;;;16.28;52.72;100709.09;1678764;84;25771;-74
2021/05/26 09:49:18;;;;;;;1.50;0.70;;;;;;;16.29;53.12;100704.02;1626083;86;25753;-74
2021/05/26 09:51:50;;;;;;;4.12;1.67;;;;;;;16.34;52.75;100707.41;1644806;84;26554;-74
2021/05/26 09:54:26;;;;;;;2.87;0.75;;;;;;;16.37;53.48;100704.24;1690020;84;26570;-74
2021/05/26 09:57:06;;;;;;;7.25;1.40;;;;;;;16.37;52.68;100701.02;1676399;83;28109;-74
2021/05/26 09:59:35;;;;;;;3.45;0.80;;;;;;;16.39;52.70;100699.44;1630291;86;26452;-74
2021/05/26 10:02:07;;;;;;;2.58;0.90;;;;;;;16.46;52.57;100692.10;1678307;83;25709;-74
2021/05/26 10:04:31;;;;;;;6.17;1.20;;;;;;;16.55;53.01;100692.16;1672487;83;25862;-74
2021/05/26 10:07:17;;;;;;;3.40;1.02;;;;;;;16.62;52.70;100684.27;1628329;86;25676;-74
2021/05/26 10:09:48;;;;;;;3.67;1.05;;;;;;;16.72;53.01;100689.17;1632568;85;27523;-75
2021/05/26 10:12:34;;;;;;;4.67;1.10;;;;;;;16.82;52.70;100679.48;1657502;86;26374;-75
2021/05/26 10:15:03;;;;;;;4.30;1.00;;;;;;;16.93;51.56;100672.48;1682984;84;25736;-74
2021/05/26 10:17:39;;;;;;;4.67;1.20;;;;;;;17.02;51.91;100670.30;1604088;86;26247;-74
2021/05/26 10:20:09;;;;;;;2.95;1.00;;;;;;;17.23;51.67;100663.05;1634599;86;26131;-73
2021/05/26 10:22:37;;;;;;;3.42;1.05;;;;;;;17.46;52.31;100669.39;1666164;84;27314;-75
2021/05/26 10:25:07;;;;;;;7.97;1.05;;;;;;;17.59;48.84;100666.53;1624234;86;25564;-74
2021/05/26 10:27:40;;;;;;;2.50;0.80;;;;;;;17.47;48.32;100668.32;1644536;84;25752;-74
2021/05/26 10:30:08;;;;;;;3.98;0.98;;;;;;;17.41;49.08;100665.19;1664161;84;25798;-74
2021/05/26 10:32:59;;;;;;;3.27;1.30;;;;;;;17.41;50.35;100667.06;1651338;84;25726;-74
2021/05/26 10:35:33;;;;;;;3.30;1.02;;;;;;;17.46;50.58;100657.73;1691262;84;27498;-74
2021/05/26 10:38:07;;;;;;;1.75;1.00;;;;;;;17.57;50.60;100655.11;1643674;84;25677;-74
2021/05/26 10:40:42;;;;;;;1.90;1.25;;;;;;;17.58;50.24;100659.45;1665099;85;25794;-75
2021/05/26 10:43:22;;;;;;;2.90;0.82;;;;;;;17.61;49.85;100654.94;1631822;84;26424;-74
2021/05/26 10:45:53;;;;;;;2.83;0.82;;;;;;;17.56;49.32;100649.38;1657416;86;25659;-74
2021/05/26 10:48:44;;;;;;;3.08;1.00;;;;;;;17.56;50.28;100643.95;1639652;86;27425;-73
2021/05/26 10:51:12;;;;;;;4.83;1.32;;;;;;;17.56;49.67;100640.41;1652868;86;25983;-73
2021/05/26 10:53:42;;;;;;;4.05;1.40;;;;;;;17.65;50.52;100633.09;1638888;84;25677;-74
2021/05/26 10:56:36;;;;;;;2.72;1.05;;;;;;;17.81;50.87;100642.45;1690484;82;25793;-74
2021/05/26 10:59:15;;;;;;;3.20;1.00;;;;;;;17.98;49.58;100633.09;1631998;84;25854;-75
2021/05/26 11:02:07;;;;;;;2.85;1.10;;;;;;;18.12;47.89;100626.38;1662080;84;27404;-74
2021/05/26 11:04:38;;;;;;;4.92;1.02;;;;;;;18.09;48.65;100629.02;1691635;84;26257;-74
2021/05/26 11:07:29;;;;;;;2.00;0.72;;;;;;;18.02;48.88;100631.56;1693855;84;25634;-74
2021/05/26 11:10:06;;;;;;;2.52;0.88;;;;;;;17.95;49.02;100634.38;1642038;84;25861;-74
2021/05/26 11:12:58;;;;;;;3.80;1.00;;;;;;;17.94;48.74;100638.69;1667730;84;25750;-75
2021/05/26 11:15:44;;;;;;;4.33;0.80;;;;;;;17.95;48.90;100628.97;1666941;84;27350;-74
2021/05/26 11:18:17;;;;;;;2.92;0.93;;;;;;;18.06;49.61;100629.52;1648223;86;25639;-74
2021/05/26 11:20:42;;;;;;;1.77;1.00;;;;;;;18.32;50.01;100625.51;1643077;84;25700;-74
2021/05/26 11:23:12;;;;;;;6.72;0.90;;;;;;;18.46;47.55;100629.12;1624982;86;26483;-74
2021/05/26 11:25:54;;;;;;;3.72;0.70;;;;;;;18.61;47.74;100619.66;1640464;84;25657;-74
2021/05/26 11:28:30;;;;;;;6.40;0.88;;;;;;;18.75;46.97;100619.70;1682857;84;27543;-74
2021/05/26 11:31:07;;;;;;;5.35;0.80;;;;;;;18.86;47.74;100616.14;1620575;86;25665;-74
2021/05/26 11:33:35;;;;;;;2.80;0.68;;;;;;;18.97;46.92;100617.45;1640814;84;25459;-74
2021/05/26 11:36:04;;;;;;;3.77;1.30;;;;;;;19.00;47.02;100617.50;1675818;83;26464;-74
2021/05/26 11:38:32;;;;;;;4.15;1.05;;;;;;;19.06;46.05;100618.72;1653851;86;25674;-74
2021/05/26 11:41:00;;;;;;;3.90;1.00;;;;;;;19.12;47.40;100610.13;1610281;86;27466;-74